Time,TemperatureF,DewpointF,PressureIn,WindDirection,WindDirectionDegrees,WindSpeedMPH,WindSpeedGustMPH,Humidity,HourlyPrecipIn,Conditions,Clouds,dailyrainin,SoftwareType,DateUTC
2013-02-21 00:00:00,26.4,15.8,30.04,NNE,22,1.6,3.8,64,0.00,,,0.00,WUHU21623XXSP,2013-02-21 06:00:00,
2013-02-21 00:05:00,26.4,15.8,30.04,NNE,22,1.6,2.5,64,0.00,,,0.00,WUHU21623XXSP,2013-02-21 06:05:00,
2013-02-21 00:10:00,26.4,15.8,30.04,NNE,22,1.6,1.6,64,0.00,,,0.00,WUHU21623XXSP,2013-02-21 06:10:00,
2013-02-21 00:15:00,26.4,15.8,30.04,NNE,22,0.0,1.6,64,0.00,,,0.00,WUHU21623XXSP,2013-02-21 06:15:00,
2013-02-21 00:20:00,26.4,15.8,30.04,NNE,22,0.0,0.0,64,0.00,,,0.00,WUHU21623XXSP,2013-02-21 06:20:00,
2013-02-21 00:25:00,26.4,15.8,30.04,NNE,22,2.9,2.9,64,0.00,,,0.00,WUHU21623XXSP,2013-02-21 06:25:00,
2013-02-21 00:30:00,26.4,15.8,30.04,NNE,22,2.9,2.9,64,0.00,,,0.00,WUHU21623XXSP,2013-02-21 06:30:00,
2013-02-21 00:35:00,26.4,15.8,30.05,NNE,22,1.6,2.9,64,0.00,,,0.00,WUHU21623XXSP,2013-02-21 06:35:00,
2013-02-21 00:40:00,26.2,15.6,30.04,NNE,22,4.5,4.5,64,0.00,,,0.00,WUHU21623XXSP,2013-02-21 06:40:00,
2013-02-21 00:45:00,26.2,15.6,30.04,NNE,22,0.0,4.5,64,0.00,,,0.00,WUHU21623XXSP,2013-02-21 06:45:00,
2013-02-21 00:50:00,26.2,15.6,30.04,NNE,22,0.0,2.2,64,0.00,,,0.00,WUHU21623XXSP,2013-02-21 06:50:00,
2013-02-21 00:55:00,26.1,15.5,30.04,NNE,22,0.0,0.0,64,0.00,,,0.00,WUHU21623XXSP,2013-02-21 06:55:00,
2013-02-21 01:00:00,26.1,15.5,30.04,NNE,22,0.0,0.0,64,0.00,,,0.00,WUHU21623XXSP,2013-02-21 07:00:00,
2013-02-21 01:05:00,26.1,15.5,30.04,NNE,22,2.9,2.9,64,0.00,,,0.00,WUHU21623XXSP,2013-02-21 07:05:00,
2013-02-21 01:10:00,25.9,15.3,30.04,NNE,22,0.0,2.9,64,0.00,,,0.00,WUHU21623XXSP,2013-02-21 07:10:00,
2013-02-21 01:15:00,25.9,15.3,30.04,NNE,22,6.3,6.3,64,0.00,,,0.00,WUHU21623XXSP,2013-02-21 07:15:00,
2013-02-21 01:20:00,25.9,15.3,30.04,NNE,22,1.6,6.3,64,0.00,,,0.00,WUHU21623XXSP,2013-02-21 07:20:00,
2013-02-21 01:25:00,25.9,15.3,30.04,NNE,22,0.0,2.5,64,0.00,,,0.00,WUHU21623XXSP,2013-02-21 07:25:00,
2013-02-21 01:30:00,25.7,15.1,30.03,NNE,22,3.8,3.8,64,0.00,,,0.00,WUHU21623XXSP,2013-02-21 07:30:00,
2013-02-21 01:35:00,25.7,15.1,30.02,NNE,22,2.0,3.8,64,0.00,,,0.00,WUHU21623XXSP,2013-02-21 07:35:00,
2013-02-21 01:40:00,25.7,15.1,30.03,NNE,22,0.0,2.5,64,0.00,,,0.00,WUHU21623XXSP,2013-02-21 07:40:00,
2013-02-21 01:45:00,25.7,15.1,30.04,NNE,22,0.0,0.0,64,0.00,,,0.00,WUHU21623XXSP,2013-02-21 07:45:00,
2013-02-21 01:50:00,25.7,15.1,30.04,NNE,22,0.0,0.0,64,0.00,,,0.00,WUHU21623XXSP,2013-02-21 07:50:00,
2013-02-21 01:55:00,25.7,15.1,30.04,NNE,22,0.0,0.0,64,0.00,,,0.00,WUHU21623XXSP,2013-02-21 07:55:00,
2013-02-21 02:00:00,25.7,15.1,30.03,NNE,22,0.0,0.0,64,0.00,,,0.00,WUHU21623XXSP,2013-02-21 08:00:00,
2013-02-21 02:05:00,25.5,15.0,30.03,NNE,22,0.0,0.0,64,0.00,,,0.00,WUHU21623XXSP,2013-02-21 08:05:00,
2013-02-21 02:10:00,25.5,15.0,30.03,NNE,22,0.0,0.0,64,0.00,,,0.00,WUHU21623XXSP,2013-02-21 08:10:00,
2013-02-21 02:15:00,25.5,15.0,30.04,NNE,22,1.6,1.6,64,0.00,,,0.00,WUHU21623XXSP,2013-02-21 08:15:00,
2013-02-21 02:20:00,25.5,15.0,30.04,NNE,22,0.0,1.6,64,0.00,,,0.00,WUHU21623XXSP,2013-02-21 08:20:00,
2013-02-21 02:25:00,25.5,15.0,30.04,NNE,22,0.0,0.0,64,0.00,,,0.00,WUHU21623XXSP,2013-02-21 08:25:00,
2013-02-21 02:30:00,25.5,15.0,30.04,NNE,22,0.0,0.0,64,0.00,,,0.00,WUHU21623XXSP,2013-02-21 08:30:00,
2013-02-21 02:35:00,25.3,15.1,30.04,NNE,22,0.0,0.0,65,0.00,,,0.00,WUHU21623XXSP,2013-02-21 08:35:00,
2013-02-21 02:40:00,25.3,15.1,30.04,NNE,22,0.0,0.0,65,0.00,,,0.00,WUHU21623XXSP,2013-02-21 08:40:00,
2013-02-21 02:45:00,25.2,15.0,30.04,NNE,22,0.0,0.0,65,0.00,,,0.00,WUHU21623XXSP,2013-02-21 08:45:00,
2013-02-21 02:50:00,25.2,15.0,30.04,NNE,22,0.0,0.0,65,0.00,,,0.00,WUHU21623XXSP,2013-02-21 08:50:00,
2013-02-21 02:55:00,25.0,14.8,30.03,NNE,22,0.0,0.0,65,0.00,,,0.00,WUHU21623XXSP,2013-02-21 08:55:00,
2013-02-21 03:00:00,25.0,15.1,30.03,NNE,22,0.0,0.0,66,0.00,,,0.00,WUHU21623XXSP,2013-02-21 09:00:00,
2013-02-21 03:05:00,25.0,14.8,30.02,NNE,22,3.8,3.8,65,0.00,,,0.00,WUHU21623XXSP,2013-02-21 09:05:00,
2013-02-21 03:10:00,25.0,15.1,30.02,NNE,22,4.5,5.8,66,0.00,,,0.00,WUHU21623XXSP,2013-02-21 09:10:00,
2013-02-21 03:15:00,25.0,15.1,30.01,NNE,22,3.4,5.8,66,0.00,,,0.00,WUHU21623XXSP,2013-02-21 09:15:00,
2013-02-21 03:20:00,25.0,15.1,30.01,NNE,22,2.9,3.8,66,0.00,,,0.00,WUHU21623XXSP,2013-02-21 09:20:00,
2013-02-21 03:25:00,25.0,15.1,30.01,NNE,22,0.0,2.9,66,0.00,,,0.00,WUHU21623XXSP,2013-02-21 09:25:00,
2013-02-21 03:30:00,25.2,15.1,30.02,NNE,22,0.0,0.0,66,0.00,,,0.00,WUHU21623XXSP,2013-02-21 09:30:00,
2013-02-21 03:35:00,25.2,15.3,30.03,NNE,22,0.0,0.0,66,0.00,,,0.00,WUHU21623XXSP,2013-02-21 09:35:00,
2013-02-21 03:40:00,25.2,15.3,30.03,NNE,22,0.0,0.0,66,0.00,,,0.00,WUHU21623XXSP,2013-02-21 09:40:00,
2013-02-21 03:45:00,25.3,15.5,30.03,NNE,22,2.7,2.7,66,0.00,,,0.00,WUHU21623XXSP,2013-02-21 09:45:00,
2013-02-21 03:50:00,25.3,15.5,30.02,NNE,22,0.0,2.7,66,0.00,,,0.00,WUHU21623XXSP,2013-02-21 09:50:00,
2013-02-21 03:55:00,25.3,15.5,30.03,NNE,22,0.0,0.0,66,0.00,,,0.00,WUHU21623XXSP,2013-02-21 09:55:00,
2013-02-21 04:00:00,25.5,15.7,30.03,NNE,22,0.0,0.0,66,0.00,,,0.00,WUHU21623XXSP,2013-02-21 10:00:00,
2013-02-21 04:05:00,25.5,15.7,30.02,NNE,22,0.0,0.0,66,0.00,,,0.00,WUHU21623XXSP,2013-02-21 10:05:00,
2013-02-21 04:10:00,25.3,15.5,30.02,NNE,22,0.0,0.0,66,0.00,,,0.00,WUHU21623XXSP,2013-02-21 10:10:00,
2013-02-21 04:15:00,25.3,15.1,30.03,NNE,22,0.0,0.0,65,0.00,,,0.00,WUHU21623XXSP,2013-02-21 10:15:00,
2013-02-21 04:20:00,25.3,15.1,30.03,NNE,22,0.0,0.0,65,0.00,,,0.00,WUHU21623XXSP,2013-02-21 10:20:00,
2013-02-21 04:25:00,25.3,15.1,30.03,NNE,22,0.0,0.0,65,0.00,,,0.00,WUHU21623XXSP,2013-02-21 10:25:00,
2013-02-21 04:30:00,25.2,15.0,30.04,NNE,22,0.0,0.0,65,0.00,,,0.00,WUHU21623XXSP,2013-02-21 10:30:00,
2013-02-21 04:35:00,25.2,15.0,30.04,NNE,22,0.0,0.0,65,0.00,,,0.00,WUHU21623XXSP,2013-02-21 10:35:00,
2013-02-21 04:40:00,25.0,15.0,30.04,NNE,22,0.0,0.0,66,0.00,,,0.00,WUHU21623XXSP,2013-02-21 10:40:00,
2013-02-21 04:45:00,25.0,15.1,30.05,NNE,22,0.0,0.0,66,0.00,,,0.00,WUHU21623XXSP,2013-02-21 10:45:00,
2013-02-21 04:50:00,25.0,15.1,30.04,NNE,22,0.0,0.0,66,0.00,,,0.00,WUHU21623XXSP,2013-02-21 10:50:00,
2013-02-21 04:55:00,25.0,15.1,30.04,NNE,22,0.0,0.0,66,0.00,,,0.00,WUHU21623XXSP,2013-02-21 10:55:00,
2013-02-21 05:00:00,24.8,15.3,30.05,NNE,22,0.0,0.0,67,0.00,,,0.00,WUHU21623XXSP,2013-02-21 11:00:00,
2013-02-21 05:05:00,25.0,15.5,30.05,NNE,22,0.0,0.0,67,0.00,,,0.00,WUHU21623XXSP,2013-02-21 11:05:00,
2013-02-21 05:10:00,25.0,15.5,30.05,NNE,22,0.0,0.0,67,0.00,,,0.00,WUHU21623XXSP,2013-02-21 11:10:00,
2013-02-21 05:15:00,25.0,15.5,30.05,NNE,22,0.0,0.0,67,0.00,,,0.00,WUHU21623XXSP,2013-02-21 11:15:00,
2013-02-21 05:20:00,25.0,15.5,30.05,NNE,22,0.0,0.0,67,0.00,,,0.00,WUHU21623XXSP,2013-02-21 11:20:00,
2013-02-21 05:25:00,25.0,15.5,30.05,NNE,22,0.0,0.0,67,0.00,,,0.00,WUHU21623XXSP,2013-02-21 11:25:00,
2013-02-21 05:30:00,25.0,15.1,30.05,NNE,22,0.0,0.0,66,0.00,,,0.00,WUHU21623XXSP,2013-02-21 11:30:00,
2013-02-21 05:35:00,25.0,15.1,30.05,NNE,22,0.0,0.0,66,0.00,,,0.00,WUHU21623XXSP,2013-02-21 11:35:00,
2013-02-21 05:40:00,25.0,15.1,30.04,NNE,22,0.0,0.0,66,0.00,,,0.00,WUHU21623XXSP,2013-02-21 11:40:00,
2013-02-21 05:45:00,25.0,15.5,30.04,NNE,22,0.0,0.0,67,0.00,,,0.00,WUHU21623XXSP,2013-02-21 11:45:00,
2013-02-21 05:50:00,24.6,15.1,30.05,NNE,22,0.0,0.0,67,0.00,,,0.00,WUHU21623XXSP,2013-02-21 11:50:00,
2013-02-21 05:55:00,24.6,15.1,30.05,NNE,22,0.0,0.0,68,0.00,,,0.00,WUHU21623XXSP,2013-02-21 11:55:00,
2013-02-21 06:00:00,24.8,15.5,30.04,NNE,22,3.1,3.6,68,0.00,,,0.00,WUHU21623XXSP,2013-02-21 12:00:00,
2013-02-21 06:05:00,25.0,15.8,30.04,NNE,22,1.8,3.6,68,0.00,,,0.00,WUHU21623XXSP,2013-02-21 12:05:00,
2013-02-21 06:10:00,25.0,16.2,30.04,NNE,22,5.6,6.9,69,0.00,,,0.00,WUHU21623XXSP,2013-02-21 12:10:00,
2013-02-21 06:15:00,25.2,16.0,30.04,NNE,22,0.0,6.9,68,0.00,,,0.00,WUHU21623XXSP,2013-02-21 12:15:00,
2013-02-21 06:20:00,25.3,16.2,30.05,NNE,22,0.0,6.9,68,0.00,,,0.00,WUHU21623XXSP,2013-02-21 12:20:00,
2013-02-21 06:25:00,25.3,16.2,30.05,NNE,22,0.0,0.0,68,0.00,,,0.00,WUHU21623XXSP,2013-02-21 12:25:00,
2013-02-21 06:30:00,25.5,16.2,30.05,NNE,22,0.0,0.0,68,0.00,,,0.00,WUHU21623XXSP,2013-02-21 12:30:00,
2013-02-21 06:35:00,25.5,16.4,30.05,NNE,22,0.0,0.0,68,0.00,,,0.00,WUHU21623XXSP,2013-02-21 12:35:00,
2013-02-21 06:40:00,25.5,16.4,30.05,NNE,22,16.8,16.8,68,0.00,,,0.00,WUHU21623XXSP,2013-02-21 12:40:00,
2013-02-21 06:45:00,25.5,16.4,30.05,NNE,22,27.7,31.3,68,0.00,,,0.00,WUHU21623XXSP,2013-02-21 12:45:00,
2013-02-21 06:50:00,25.5,16.5,30.06,NNE,22,27.2,31.3,68,0.00,,,0.00,WUHU21623XXSP,2013-02-21 12:50:00,
2013-02-21 06:55:00,25.9,16.7,30.06,NNE,22,0.0,27.7,68,0.00,,,0.00,WUHU21623XXSP,2013-02-21 12:55:00,
2013-02-21 07:00:00,26.1,16.9,30.06,NNE,22,0.0,27.2,68,0.00,,,0.00,WUHU21623XXSP,2013-02-21 13:00:00,
2013-02-21 07:05:00,26.2,17.1,30.06,NNE,22,26.9,27.0,68,0.00,,,0.00,WUHU21623XXSP,2013-02-21 13:05:00,
2013-02-21 07:10:00,26.2,17.1,30.06,NNE,22,5.6,27.0,68,0.00,,,0.00,WUHU21623XXSP,2013-02-21 13:10:00,
2013-02-21 07:15:00,26.4,17.6,30.05,NNE,22,4.7,7.6,69,0.00,,,0.00,WUHU21623XXSP,2013-02-21 13:15:00,
2013-02-21 07:20:00,26.6,17.6,30.05,NNE,22,4.0,7.6,69,0.00,,,0.00,WUHU21623XXSP,2013-02-21 13:20:00,
2013-02-21 07:25:00,27.0,17.6,30.05,NE,45,5.6,5.6,68,0.00,,,0.00,WUHU21623XXSP,2013-02-21 13:25:00,
2013-02-21 07:30:00,27.1,17.6,30.05,NE,45,6.7,6.7,67,0.00,,,0.00,WUHU21623XXSP,2013-02-21 13:30:00,
2013-02-21 07:35:00,27.3,17.8,30.05,NE,45,6.0,6.7,67,0.00,,,0.00,WUHU21623XXSP,2013-02-21 13:35:00,
2013-02-21 07:40:00,27.7,18.1,30.04,NE,45,4.3,6.7,67,0.00,,,0.00,WUHU21623XXSP,2013-02-21 13:40:00,
2013-02-21 07:45:00,28.0,18.1,30.04,NE,45,4.3,4.3,66,0.00,,,0.00,WUHU21623XXSP,2013-02-21 13:45:00,
2013-02-21 07:50:00,28.6,18.3,30.03,NNE,22,6.0,6.5,65,0.00,,,0.00,WUHU21623XXSP,2013-02-21 13:50:00,
2013-02-21 07:55:00,29.1,18.4,30.04,NE,45,1.8,7.6,64,0.00,,,0.00,WUHU21623XXSP,2013-02-21 13:55:00,
2013-02-21 08:00:00,29.8,19.1,30.04,NE,45,3.8,7.6,64,0.00,,,0.00,WUHU21623XXSP,2013-02-21 14:00:00,
2013-02-21 08:05:00,30.4,19.2,30.04,NE,45,0.7,7.2,63,0.00,,,0.00,WUHU21623XXSP,2013-02-21 14:05:00,
2013-02-21 08:10:00,30.7,19.6,30.04,SE,135,7.8,7.8,63,0.00,,,0.00,WUHU21623XXSP,2013-02-21 14:10:00,
2013-02-21 08:16:00,31.3,19.8,30.03,NE,45,2.5,7.8,62,0.00,,,0.00,WUHU21623XXSP,2013-02-21 14:16:00,
2013-02-21 08:21:00,31.8,19.8,30.03,NE,45,2.5,3.1,61,0.00,,,0.00,WUHU21623XXSP,2013-02-21 14:21:00,
2013-02-21 08:26:00,32.4,20.4,30.03,NNE,22,2.5,2.5,61,0.00,,,0.00,WUHU21623XXSP,2013-02-21 14:26:00,
2013-02-21 08:31:00,32.5,20.2,30.03,NNE,22,0.0,2.5,60,0.00,,,0.00,WUHU21623XXSP,2013-02-21 14:31:00,
2013-02-21 08:36:00,33.1,20.7,30.03,ENE,67,0.0,1.8,60,0.00,,,0.00,WUHU21623XXSP,2013-02-21 14:36:00,
2013-02-21 08:42:00,33.4,20.6,30.03,NE,45,0.0,0.0,59,0.00,,,0.00,WUHU21623XXSP,2013-02-21 14:42:00,
2013-02-21 08:47:00,33.4,20.6,30.03,NE,45,3.8,3.8,59,0.00,,,0.00,WUHU21623XXSP,2013-02-21 14:47:00,
2013-02-21 08:52:00,33.8,20.9,30.02,NE,45,1.6,3.8,59,0.00,,,0.00,WUHU21623XXSP,2013-02-21 14:52:00,
2013-02-21 08:57:00,34.0,20.7,30.02,NE,45,0.0,2.9,58,0.00,,,0.00,WUHU21623XXSP,2013-02-21 14:57:00,
2013-02-21 09:02:00,34.3,20.6,30.01,NNE,22,4.3,4.3,57,0.00,,,0.00,WUHU21623XXSP,2013-02-21 15:02:00,
2013-02-21 09:07:00,35.2,21.5,30.01,NNE,22,0.0,4.3,57,0.00,,,0.00,WUHU21623XXSP,2013-02-21 15:07:00,
2013-02-21 09:12:00,35.4,21.3,30.01,NE,45,0.0,6.5,56,0.00,,,0.00,WUHU21623XXSP,2013-02-21 15:12:00,
2013-02-21 09:17:00,36.1,21.6,30.01,NE,45,2.0,6.5,56,0.00,,,0.00,WUHU21623XXSP,2013-02-21 15:17:00,
2013-02-21 09:22:00,36.5,21.8,30.00,NE,45,0.0,2.0,55,0.00,,,0.00,WUHU21623XXSP,2013-02-21 15:22:00,
2013-02-21 09:27:00,36.7,21.6,30.00,NE,45,0.0,1.1,54,0.00,,,0.00,WUHU21623XXSP,2013-02-21 15:27:00,
2013-02-21 09:32:00,37.2,22.0,30.01,NE,45,0.0,0.0,53,0.00,,,0.00,WUHU21623XXSP,2013-02-21 15:32:00,
2013-02-21 09:37:00,37.8,21.7,30.01,ESE,112,2.5,5.6,52,0.00,,,0.00,WUHU21623XXSP,2013-02-21 15:37:00,
2013-02-21 09:42:00,38.5,22.3,30.01,NE,45,5.4,5.6,52,0.00,,,0.00,WUHU21623XXSP,2013-02-21 15:42:00,
2013-02-21 09:47:00,39.0,22.4,30.01,NE,45,3.1,5.4,51,0.00,,,0.00,WUHU21623XXSP,2013-02-21 15:47:00,
2013-02-21 09:52:00,39.4,22.3,30.01,NNE,22,6.5,6.5,50,0.00,,,0.00,WUHU21623XXSP,2013-02-21 15:52:00,
2013-02-21 09:57:00,39.7,22.6,30.01,NE,45,2.0,6.5,50,0.00,,,0.00,WUHU21623XXSP,2013-02-21 15:57:00,
2013-02-21 10:02:00,40.1,21.9,30.01,NNE,22,8.3,8.3,48,0.00,,,0.00,WUHU21623XXSP,2013-02-21 16:02:00,
2013-02-21 10:07:00,40.5,22.2,30.01,NNE,22,7.8,8.3,48,0.00,,,0.00,WUHU21623XXSP,2013-02-21 16:07:00,
2013-02-21 10:12:00,40.8,22.5,30.00,NE,45,6.7,8.1,48,0.00,,,0.00,WUHU21623XXSP,2013-02-21 16:12:00,
2013-02-21 10:17:00,41.5,23.2,29.99,NNE,22,4.7,6.9,48,0.00,,,0.00,WUHU21623XXSP,2013-02-21 16:17:00,
2013-02-21 10:22:00,42.1,23.2,29.99,NE,45,8.1,8.1,47,0.00,,,0.00,WUHU21623XXSP,2013-02-21 16:22:00,
2013-02-21 10:27:00,42.4,23.0,29.98,NNE,22,5.8,8.1,46,0.00,,,0.00,WUHU21623XXSP,2013-02-21 16:27:00,
2013-02-21 10:32:00,42.6,23.2,29.97,NE,45,0.0,5.8,46,0.00,,,0.00,WUHU21623XXSP,2013-02-21 16:32:00,
2013-02-21 10:37:00,43.3,23.3,29.97,NE,45,0.0,6.0,45,0.00,,,0.00,WUHU21623XXSP,2013-02-21 16:37:00,
2013-02-21 10:42:00,43.7,23.6,29.97,NE,45,1.8,6.0,45,0.00,,,0.00,WUHU21623XXSP,2013-02-21 16:42:00,
2013-02-21 10:47:00,44.4,23.7,29.97,NE,45,0.0,6.3,44,0.00,,,0.00,WUHU21623XXSP,2013-02-21 16:47:00,
2013-02-21 10:52:00,45.0,23.7,29.97,NNE,22,2.2,6.3,43,0.00,,,0.00,WUHU21623XXSP,2013-02-21 16:52:00,
2013-02-21 10:57:00,45.5,23.6,29.97,NE,45,2.9,2.9,42,0.00,,,0.00,WUHU21623XXSP,2013-02-21 16:57:00,
2013-02-21 11:02:00,46.0,23.6,29.96,NNE,22,5.6,7.4,41,0.00,,,0.00,WUHU21623XXSP,2013-02-21 17:02:00,
2013-02-21 11:07:00,46.2,23.2,29.96,NNE,22,2.5,7.4,40,0.00,,,0.00,WUHU21623XXSP,2013-02-21 17:07:00,
2013-02-21 11:12:00,46.6,23.5,29.95,East,90,2.7,5.4,40,0.00,,,0.00,WUHU21623XXSP,2013-02-21 17:12:00,
2013-02-21 11:17:00,47.1,24.0,29.96,NNE,22,8.3,8.3,40,0.00,,,0.00,WUHU21623XXSP,2013-02-21 17:17:00,
2013-02-21 11:22:00,47.7,24.5,29.96,NE,45,1.6,8.3,40,0.00,,,0.00,WUHU21623XXSP,2013-02-21 17:22:00,
2013-02-21 11:27:00,47.8,24.0,29.95,NE,45,0.0,1.6,39,0.00,,,0.00,WUHU21623XXSP,2013-02-21 17:27:00,
2013-02-21 11:32:00,48.4,24.5,29.96,NE,45,0.0,2.9,39,0.00,,,0.00,WUHU21623XXSP,2013-02-21 17:32:00,
2013-02-21 11:37:00,48.7,24.8,29.96,WNW,292,0.0,2.9,39,0.00,,,0.00,WUHU21623XXSP,2013-02-21 17:37:00,
2013-02-21 11:42:00,49.5,25.4,29.96,West,270,0.0,2.2,39,0.00,,,0.00,WUHU21623XXSP,2013-02-21 17:42:00,
2013-02-21 11:47:00,50.4,25.6,29.95,WSW,247,0.0,2.2,38,0.00,,,0.00,WUHU21623XXSP,2013-02-21 17:47:00,
2013-02-21 11:52:00,50.7,25.2,29.95,WNW,292,0.0,0.0,37,0.00,,,0.00,WUHU21623XXSP,2013-02-21 17:52:00,
2013-02-21 11:57:00,51.1,25.5,29.95,WSW,247,0.0,6.5,37,0.00,,,0.00,WUHU21623XXSP,2013-02-21 17:57:00,
2013-02-21 12:02:00,51.4,25.2,29.95,NNE,22,0.0,6.5,36,0.00,,,0.00,WUHU21623XXSP,2013-02-21 18:02:00,
2013-02-21 12:07:00,51.6,24.6,29.94,ESE,112,0.0,0.0,35,0.00,,,0.00,WUHU21623XXSP,2013-02-21 18:07:00,
2013-02-21 12:12:00,51.6,24.6,29.94,NE,45,0.0,0.0,35,0.00,,,0.00,WUHU21623XXSP,2013-02-21 18:12:00,
2013-02-21 12:17:00,51.4,23.8,29.93,NNE,22,3.1,3.1,34,0.00,,,0.00,WUHU21623XXSP,2013-02-21 18:17:00,
2013-02-21 12:22:00,51.3,23.6,29.93,ESE,112,2.5,3.1,34,0.00,,,0.00,WUHU21623XXSP,2013-02-21 18:22:00,
2013-02-21 12:27:00,51.3,23.8,29.92,NE,45,4.0,4.0,34,0.00,,,0.00,WUHU21623XXSP,2013-02-21 18:27:00,
2013-02-21 12:32:00,51.1,23.5,29.91,NNE,22,0.0,4.0,34,0.00,,,0.00,WUHU21623XXSP,2013-02-21 18:32:00,
2013-02-21 12:37:00,51.3,23.6,29.91,NNE,22,2.5,2.5,34,0.00,,,0.00,WUHU21623XXSP,2013-02-21 18:37:00,
2013-02-21 12:42:00,51.6,24.0,29.91,NE,45,5.6,5.6,34,0.00,,,0.00,WUHU21623XXSP,2013-02-21 18:42:00,
2013-02-21 12:47:00,51.6,24.0,29.90,NNE,22,6.3,6.3,34,0.00,,,0.00,WUHU21623XXSP,2013-02-21 18:47:00,
2013-02-21 12:52:00,52.0,24.3,29.90,NE,45,7.4,7.4,34,0.00,,,0.00,WUHU21623XXSP,2013-02-21 18:52:00,
2013-02-21 12:57:00,52.0,23.6,29.90,NE,45,5.4,7.4,33,0.00,,,0.00,WUHU21623XXSP,2013-02-21 18:57:00,
2013-02-21 13:02:00,52.2,23.8,29.91,NE,45,2.5,6.0,33,0.00,,,0.00,WUHU21623XXSP,2013-02-21 19:02:00,
2013-02-21 13:07:00,52.3,23.9,29.90,NE,45,0.0,4.3,33,0.00,,,0.00,WUHU21623XXSP,2013-02-21 19:07:00,
2013-02-21 13:12:00,52.5,24.1,29.89,NE,45,3.4,4.3,33,0.00,,,0.00,WUHU21623XXSP,2013-02-21 19:12:00,
2013-02-21 13:17:00,52.7,24.1,29.89,NE,45,0.0,3.4,33,0.00,,,0.00,WUHU21623XXSP,2013-02-21 19:17:00,
2013-02-21 13:22:00,52.9,24.4,29.89,ENE,67,0.0,0.0,33,0.00,,,0.00,WUHU21623XXSP,2013-02-21 19:22:00,
2013-02-21 13:27:00,52.9,23.7,29.89,ENE,67,0.0,3.6,32,0.00,,,0.00,WUHU21623XXSP,2013-02-21 19:27:00,
2013-02-21 13:32:00,52.9,23.7,29.88,ENE,67,0.0,3.6,32,0.00,,,0.00,WUHU21623XXSP,2013-02-21 19:32:00,
2013-02-21 13:37:00,53.1,23.9,29.88,NE,45,0.0,2.7,32,0.00,,,0.00,WUHU21623XXSP,2013-02-21 19:37:00,
2013-02-21 13:42:00,53.2,24.0,29.88,NE,45,0.0,2.7,32,0.00,,,0.00,WUHU21623XXSP,2013-02-21 19:42:00,
2013-02-21 13:47:00,53.4,24.2,29.87,NE,45,6.9,6.9,32,0.00,,,0.00,WUHU21623XXSP,2013-02-21 19:47:00,
2013-02-21 13:52:00,53.4,23.5,29.86,NE,45,2.7,6.9,31,0.00,,,0.00,WUHU21623XXSP,2013-02-21 19:52:00,
2013-02-21 13:57:00,53.4,23.5,29.86,North,0,2.9,4.5,31,0.00,,,0.00,WUHU21623XXSP,2013-02-21 19:57:00,
2013-02-21 14:02:00,53.8,23.8,29.86,North,0,0.0,4.3,31,0.00,,,0.00,WUHU21623XXSP,2013-02-21 20:02:00,
2013-02-21 14:07:00,54.1,24.1,29.85,ENE,67,0.0,0.0,31,0.00,,,0.00,WUHU21623XXSP,2013-02-21 20:07:00,
2013-02-21 14:12:00,54.1,24.1,29.85,ENE,67,6.5,6.5,31,0.00,,,0.00,WUHU21623XXSP,2013-02-21 20:12:00,
2013-02-21 14:17:00,54.1,24.1,29.85,ENE,67,0.0,6.5,31,0.00,,,0.00,WUHU21623XXSP,2013-02-21 20:17:00,
2013-02-21 14:22:00,54.1,24.1,29.85,ESE,112,0.0,0.0,31,0.00,,,0.00,WUHU21623XXSP,2013-02-21 20:22:00,
2013-02-21 14:27:00,54.0,24.0,29.84,WNW,292,0.0,0.0,31,0.00,,,0.00,WUHU21623XXSP,2013-02-21 20:27:00,
2013-02-21 14:32:00,54.0,24.0,29.83,WSW,247,0.0,0.0,31,0.00,,,0.00,WUHU21623XXSP,2013-02-21 20:32:00,
2013-02-21 14:37:00,53.8,23.1,29.82,SE,135,0.0,4.5,30,0.00,,,0.00,WUHU21623XXSP,2013-02-21 20:37:00,
2013-02-21 14:42:00,53.8,22.2,29.82,East,90,4.7,5.6,29,0.00,,,0.00,WUHU21623XXSP,2013-02-21 20:42:00,
2013-02-21 14:47:00,53.8,22.2,29.81,ESE,112,9.6,9.6,29,0.00,,,0.00,WUHU21623XXSP,2013-02-21 20:47:00,
2013-02-21 14:52:00,54.1,22.5,29.81,East,90,2.0,9.6,29,0.00,,,0.00,WUHU21623XXSP,2013-02-21 20:52:00,
2013-02-21 14:57:00,54.7,22.0,29.82,SE,135,2.0,7.1,28,0.00,,,0.00,WUHU21623XXSP,2013-02-21 20:57:00,
2013-02-21 15:02:00,54.9,22.1,29.81,SE,135,6.3,6.3,28,0.00,,,0.00,WUHU21623XXSP,2013-02-21 21:02:00,
2013-02-21 15:07:00,54.9,22.1,29.80,NE,45,0.0,6.3,28,0.00,,,0.00,WUHU21623XXSP,2013-02-21 21:07:00,
2013-02-21 15:12:00,54.9,22.1,29.80,SE,135,0.2,6.9,28,0.00,,,0.00,WUHU21623XXSP,2013-02-21 21:12:00,
2013-02-21 15:17:00,54.7,21.0,29.80,NE,45,0.0,6.9,27,0.00,,,0.00,WUHU21623XXSP,2013-02-21 21:17:00,
2013-02-21 15:22:00,54.7,20.1,29.80,East,90,2.5,2.5,26,0.00,,,0.00,WUHU21623XXSP,2013-02-21 21:22:00,
2013-02-21 15:27:00,54.7,21.0,29.79,ESE,112,0.0,4.5,27,0.00,,,0.00,WUHU21623XXSP,2013-02-21 21:27:00,
2013-02-21 15:32:00,54.5,20.9,29.78,NE,45,4.9,4.9,27,0.00,,,0.00,WUHU21623XXSP,2013-02-21 21:32:00,
2013-02-21 15:37:00,54.3,19.8,29.78,ESE,112,3.8,4.9,26,0.00,,,0.00,WUHU21623XXSP,2013-02-21 21:37:00,
2013-02-21 15:42:00,54.3,20.7,29.79,SE,135,9.8,9.8,27,0.00,,,0.00,WUHU21623XXSP,2013-02-21 21:42:00,
2013-02-21 15:47:00,54.1,20.6,29.79,SE,135,0.0,9.8,27,0.00,,,0.00,WUHU21623XXSP,2013-02-21 21:47:00,
2013-02-21 15:52:00,54.0,20.4,29.79,East,90,0.0,0.0,27,0.00,,,0.00,WUHU21623XXSP,2013-02-21 21:52:00,
2013-02-21 15:57:00,53.8,20.3,29.79,NNE,22,0.0,0.0,27,0.00,,,0.00,WUHU21623XXSP,2013-02-21 21:57:00,
2013-02-21 16:02:00,53.8,20.3,29.79,SE,135,0.0,0.0,27,0.00,,,0.00,WUHU21623XXSP,2013-02-21 22:02:00,
2013-02-21 16:07:00,53.4,20.0,29.78,ESE,112,0.0,0.0,27,0.00,,,0.00,WUHU21623XXSP,2013-02-21 22:07:00,
2013-02-21 16:12:00,53.4,20.0,29.78,SE,135,0.0,0.0,27,0.00,,,0.00,WUHU21623XXSP,2013-02-21 22:12:00,
2013-02-21 16:17:00,53.2,19.8,29.79,SE,135,0.0,0.0,27,0.00,,,0.00,WUHU21623XXSP,2013-02-21 22:17:00,
2013-02-21 16:22:00,53.2,20.8,29.80,SE,135,0.0,0.0,28,0.00,,,0.00,WUHU21623XXSP,2013-02-21 22:22:00,
2013-02-21 16:27:00,52.9,20.4,29.81,SE,135,0.0,0.0,28,0.00,,,0.00,WUHU21623XXSP,2013-02-21 22:27:00,
2013-02-21 16:32:00,52.7,21.2,29.83,SW,225,1.8,1.8,29,0.00,,,0.00,WUHU21623XXSP,2013-02-21 22:32:00,
2013-02-21 16:37:00,52.3,22.5,29.84,SW,225,0.0,4.5,31,0.00,,,0.00,WUHU21623XXSP,2013-02-21 22:37:00,
2013-02-21 16:42:00,52.0,22.9,29.84,SW,225,0.0,4.5,32,0.00,,,0.00,WUHU21623XXSP,2013-02-21 22:42:00,
2013-02-21 16:47:00,51.6,23.3,29.85,SW,225,0.0,0.0,33,0.00,,,0.00,WUHU21623XXSP,2013-02-21 22:47:00,
2013-02-21 16:52:00,50.9,23.3,29.85,SW,225,0.0,0.0,34,0.00,,,0.00,WUHU21623XXSP,2013-02-21 22:52:00,
2013-02-21 16:57:00,50.7,23.8,29.86,SW,225,0.0,0.0,35,0.00,,,0.00,WUHU21623XXSP,2013-02-21 22:57:00,
2013-02-21 17:02:00,50.4,24.2,29.87,SW,225,0.0,0.0,36,0.00,,,0.00,WUHU21623XXSP,2013-02-21 23:02:00,
2013-02-21 17:07:00,49.8,25.1,29.87,SW,225,0.0,0.0,38,0.00,,,0.00,WUHU21623XXSP,2013-02-21 23:07:00,
2013-02-21 17:12:00,49.6,24.9,29.87,SW,225,0.0,0.0,38,0.00,,,0.00,WUHU21623XXSP,2013-02-21 23:12:00,
2013-02-21 17:17:00,49.1,25.3,29.87,SW,225,0.0,0.0,41,0.00,,,0.00,WUHU21623XXSP,2013-02-21 23:17:00,
2013-02-21 17:22:00,48.6,28.0,29.87,SW,225,0.0,0.0,45,0.00,,,0.00,WUHU21623XXSP,2013-02-21 23:22:00,
2013-02-21 17:27:00,47.8,28.4,29.88,SW,225,0.0,0.0,47,0.00,,,0.00,WUHU21623XXSP,2013-02-21 23:27:00,
2013-02-21 17:32:00,47.1,29.9,29.87,North,0,0.0,0.0,51,0.00,,,0.00,WUHU21623XXSP,2013-02-21 23:32:00,
2013-02-21 17:37:00,46.6,30.7,29.87,SW,225,0.0,0.0,54,0.00,,,0.00,WUHU21623XXSP,2013-02-21 23:37:00,
2013-02-21 17:42:00,46.0,31.6,29.85,SW,225,0.0,0.0,57,0.00,,,0.00,WUHU21623XXSP,2013-02-21 23:42:00,
2013-02-21 17:47:00,45.1,31.6,29.85,SW,225,0.0,0.0,58,0.00,,,0.00,WUHU21623XXSP,2013-02-21 23:47:00,
2013-02-21 17:52:00,44.8,31.5,29.85,SW,225,0.0,0.0,60,0.00,,,0.00,WUHU21623XXSP,2013-02-21 23:52:00,
2013-02-21 17:57:00,44.4,32.3,29.84,North,0,0.0,0.0,62,0.00,,,0.00,WUHU21623XXSP,2013-02-21 23:57:00,
2013-02-21 18:02:00,44.4,32.7,29.84,North,0,0.0,0.0,63,0.00,,,0.00,WUHU21623XXSP,2013-02-22 00:02:00,
2013-02-21 18:07:00,44.2,32.8,29.83,SW,225,0.0,0.0,64,0.00,,,0.00,WUHU21623XXSP,2013-02-22 00:07:00,
2013-02-21 18:12:00,44.2,33.2,29.83,SW,225,0.0,0.0,65,0.00,,,0.00,WUHU21623XXSP,2013-02-22 00:12:00,
2013-02-21 18:17:00,44.1,33.8,29.83,NNW,337,0.0,0.0,67,0.00,,,0.00,WUHU21623XXSP,2013-02-22 00:17:00,
2013-02-21 18:22:00,43.7,34.2,29.83,NNE,22,2.9,2.9,69,0.00,,,0.00,WUHU21623XXSP,2013-02-22 00:22:00,
2013-02-21 18:27:00,43.5,33.7,29.84,NE,45,0.0,2.9,68,0.00,,,0.00,WUHU21623XXSP,2013-02-22 00:27:00,
2013-02-21 18:32:00,43.5,34.1,29.84,NNE,22,2.9,2.9,69,0.00,,,0.00,WUHU21623XXSP,2013-02-22 00:32:00,
2013-02-21 18:37:00,43.3,34.3,29.83,NE,45,2.0,2.9,70,0.00,,,0.00,WUHU21623XXSP,2013-02-22 00:37:00,
2013-02-21 18:42:00,43.2,34.3,29.83,NNE,22,2.7,2.9,70,0.00,,,0.00,WUHU21623XXSP,2013-02-22 00:42:00,
2013-02-21 18:47:00,42.8,33.8,29.83,NNE,22,3.6,3.6,70,0.00,,,0.00,WUHU21623XXSP,2013-02-22 00:47:00,
2013-02-21 18:52:00,42.4,33.8,29.82,NE,45,2.5,21.5,71,0.00,,,0.00,WUHU21623XXSP,2013-02-22 00:52:00,
2013-02-21 18:57:00,42.1,33.8,29.81,NNE,26,6.4,21.5,72,0.00,,,0.00,WUHU21623XXSP,2013-02-22 00:57:00,
2013-02-21 19:02:00,42.1,33.7,29.81,NE,45,0.0,6.7,72,0.00,,,0.00,WUHU21623XXSP,2013-02-22 01:02:00,
2013-02-21 19:07:00,42.1,34.1,29.79,NE,45,0.0,6.7,73,0.00,,,0.00,WUHU21623XXSP,2013-02-22 01:07:00,
2013-02-21 19:12:00,41.7,33.9,29.78,NE,45,12.3,12.3,73,0.00,,,0.00,WUHU21623XXSP,2013-02-22 01:12:00,
2013-02-21 19:17:00,41.5,33.8,29.79,NE,45,0.0,23.5,74,0.00,,,0.00,WUHU21623XXSP,2013-02-22 01:17:00,
2013-02-21 19:22:00,41.4,33.7,29.80,NE,45,0.0,23.5,74,0.00,,,0.00,WUHU21623XXSP,2013-02-22 01:22:00,
2013-02-21 19:27:00,41.4,33.7,29.80,NE,45,0.0,14.1,74,0.00,,,0.00,WUHU21623XXSP,2013-02-22 01:27:00,
2013-02-21 19:32:00,41.2,33.8,29.80,NE,45,0.0,14.1,75,0.00,,,0.00,WUHU21623XXSP,2013-02-22 01:32:00,
2013-02-21 19:37:00,41.4,34.0,29.85,WSW,247,3.1,13.2,75,0.00,,,0.00,WUHU21623XXSP,2013-02-22 01:37:00,
2013-02-21 19:42:00,41.5,34.2,29.87,WSW,247,3.6,13.2,75,0.00,,,0.00,WUHU21623XXSP,2013-02-22 01:42:00,
2013-02-21 19:47:00,41.5,34.5,29.88,West,270,0.0,11.4,76,0.00,,,0.00,WUHU21623XXSP,2013-02-22 01:47:00,
2013-02-21 19:52:00,41.5,34.5,29.87,West,270,0.0,9.0,76,0.00,,,0.00,WUHU21623XXSP,2013-02-22 01:52:00,
2013-02-21 19:57:00,41.4,34.6,29.85,West,270,0.0,9.0,77,0.00,,,0.00,WUHU21623XXSP,2013-02-22 01:57:00,
2013-02-21 20:03:00,41.4,34.6,29.86,West,270,0.0,8.8,77,0.00,,,0.00,WUHU21623XXSP,2013-02-22 02:03:00,
2013-02-21 20:08:00,41.2,34.4,29.87,West,270,0.0,8.8,77,0.00,,,0.00,WUHU21623XXSP,2013-02-22 02:08:00,
2013-02-21 20:13:00,41.2,34.8,29.90,West,270,0.0,7.6,78,0.00,,,0.00,WUHU21623XXSP,2013-02-22 02:13:00,
2013-02-21 20:18:00,41.2,34.9,29.89,NNE,17,6.3,7.6,78,0.00,,,0.00,WUHU21623XXSP,2013-02-22 02:18:00,
2013-02-21 20:23:00,41.0,34.7,29.89,NNE,18,6.4,6.6,78,0.00,,,0.00,WUHU21623XXSP,2013-02-22 02:23:00,
2013-02-21 20:28:00,40.8,34.8,29.88,NNE,17,6.4,6.6,79,0.00,,,0.00,WUHU21623XXSP,2013-02-22 02:28:00,
2013-02-21 20:33:00,40.8,34.7,29.88,West,270,0.0,6.4,79,0.00,,,0.00,WUHU21623XXSP,2013-02-22 02:33:00,
2013-02-21 20:38:00,40.8,34.7,29.88,WNW,292,0.0,6.4,79,0.00,,,0.00,WUHU21623XXSP,2013-02-22 02:38:00,
2013-02-21 20:43:00,40.6,34.6,29.88,WNW,292,0.0,6.4,79,0.00,,,0.00,WUHU21623XXSP,2013-02-22 02:43:00,
2013-02-21 20:48:00,40.5,34.4,29.87,WNW,292,0.0,6.4,79,0.00,,,0.00,WUHU21623XXSP,2013-02-22 02:48:00,
2013-02-21 20:53:00,40.3,34.6,29.85,WNW,292,0.0,6.4,80,0.00,,,0.00,WUHU21623XXSP,2013-02-22 02:53:00,
2013-02-21 20:58:00,40.5,34.8,29.85,NNE,17,6.4,6.4,80,0.00,,,0.00,WUHU21623XXSP,2013-02-22 02:58:00,
2013-02-21 21:03:00,40.5,35.0,29.85,North,0,0.0,6.4,81,0.00,,,0.00,WUHU21623XXSP,2013-02-22 03:03:00,
2013-02-21 21:08:00,40.6,35.2,29.85,North,0,0.0,6.4,81,0.00,,,0.00,WUHU21623XXSP,2013-02-22 03:08:00,
2013-02-21 21:13:00,40.8,35.4,29.85,NNE,21,6.1,6.4,81,0.00,,,0.00,WUHU21623XXSP,2013-02-22 03:13:00,
2013-02-21 21:18:00,40.8,35.7,29.84,SE,135,6.9,6.9,82,0.00,,,0.00,WUHU21623XXSP,2013-02-22 03:18:00,
2013-02-21 21:23:00,41.0,35.9,29.84,ESE,110,6.0,6.9,82,0.00,,,0.00,WUHU21623XXSP,2013-02-22 03:23:00,
2013-02-21 21:28:00,41.2,36.4,29.84,SE,126,5.6,6.7,83,0.00,,,0.00,WUHU21623XXSP,2013-02-22 03:28:00,
2013-02-21 21:33:00,41.4,36.5,29.84,SE,135,0.0,6.7,83,0.00,,,0.00,WUHU21623XXSP,2013-02-22 03:33:00,
2013-02-21 21:38:00,41.5,36.7,29.83,ESE,112,0.0,6.7,83,0.00,,,0.00,WUHU21623XXSP,2013-02-22 03:38:00,
2013-02-21 21:43:00,41.5,36.7,29.83,NW,315,0.0,25.7,83,0.00,,,0.00,WUHU21623XXSP,2013-02-22 03:43:00,
2013-02-21 21:48:00,41.7,36.9,29.81,ESE,112,0.0,25.7,83,0.00,,,0.00,WUHU21623XXSP,2013-02-22 03:48:00,
2013-02-21 21:53:00,41.9,37.4,29.80,SE,135,6.5,18.1,84,0.00,,,0.00,WUHU21623XXSP,2013-02-22 03:53:00,
2013-02-21 21:58:00,42.1,37.5,29.78,SE,135,0.0,13.0,84,0.00,,,0.00,WUHU21623XXSP,2013-02-22 03:58:00,
2013-02-21 22:03:00,42.1,37.5,29.77,ENE,67,0.0,13.0,84,0.00,,,0.00,WUHU21623XXSP,2013-02-22 04:03:00,
2013-02-21 22:08:00,42.4,37.9,29.77,NE,45,0.0,8.7,84,0.00,,,0.00,WUHU21623XXSP,2013-02-22 04:08:00,
2013-02-21 22:13:00,42.6,38.1,29.78,NNW,337,6.7,6.7,84,0.00,,,0.00,WUHU21623XXSP,2013-02-22 04:13:00,
2013-02-21 22:18:00,43.0,38.4,29.77,ENE,67,0.0,6.7,84,0.00,,,0.00,WUHU21623XXSP,2013-02-22 04:18:00,
2013-02-21 22:23:00,43.0,38.4,29.76,WSW,247,4.0,4.9,84,0.00,,,0.00,WUHU21623XXSP,2013-02-22 04:23:00,
2013-02-21 22:28:00,43.3,38.5,29.76,East,90,6.0,10.3,83,0.00,,,0.00,WUHU21623XXSP,2013-02-22 04:28:00,
2013-02-21 22:33:00,43.5,38.7,29.76,South,180,5.6,10.3,83,0.00,,,0.00,WUHU21623XXSP,2013-02-22 04:33:00,
2013-02-21 22:38:00,43.7,38.9,29.75,South,180,6.5,7.2,83,0.00,,,0.00,WUHU21623XXSP,2013-02-22 04:38:00,
2013-02-21 22:43:00,44.2,39.1,29.75,SE,135,3.6,7.2,82,0.00,,,0.00,WUHU21623XXSP,2013-02-22 04:43:00,
2013-02-21 22:48:00,44.2,39.1,29.75,SW,225,7.8,7.8,82,0.00,,,0.00,WUHU21623XXSP,2013-02-22 04:48:00,
2013-02-21 22:53:00,44.4,39.3,29.75,WSW,247,14.1,14.1,82,0.00,,,0.00,WUHU21623XXSP,2013-02-22 04:53:00,
2013-02-21 22:58:00,44.6,39.5,29.76,South,180,7.4,14.1,82,0.00,,,0.00,WUHU21623XXSP,2013-02-22 04:58:00,
2013-02-21 23:00:00,44.8,39.6,29.75,West,270,6.7,14.1,82,0.00,,,0.00,WUHU21623XXSP,2013-02-22 05:00:00,
2013-02-21 23:05:00,45.0,39.6,29.75,SSW,202,1.8,7.4,82,0.00,,,0.00,WUHU21623XXSP,2013-02-22 05:05:00,
2013-02-21 23:10:00,45.1,39.8,29.76,North,0,4.3,4.3,81,0.00,,,0.00,WUHU21623XXSP,2013-02-22 05:10:00,
2013-02-21 23:15:00,45.3,39.9,29.75,North,0,8.9,8.9,81,0.00,,,0.00,WUHU21623XXSP,2013-02-22 05:15:00,
2013-02-21 23:20:00,45.5,39.9,29.76,SSW,202,6.3,8.9,81,0.00,,,0.00,WUHU21623XXSP,2013-02-22 05:20:00,
2013-02-21 23:25:00,45.7,39.9,29.75,NNE,22,2.9,6.3,80,0.04,,,0.04,WUHU21623XXSP,2013-02-22 05:25:00,
2013-02-21 23:30:00,45.7,39.9,29.76,SSE,157,4.3,4.3,80,0.04,,,0.04,WUHU21623XXSP,2013-02-22 05:30:00,
2013-02-21 23:35:00,46.0,40.3,29.75,NE,45,6.7,6.7,80,0.04,,,0.04,WUHU21623XXSP,2013-02-22 05:35:00,
2013-02-21 23:40:00,46.0,40.3,29.76,South,180,15.7,15.7,80,0.04,,,0.04,WUHU21623XXSP,2013-02-22 05:40:00,
2013-02-21 23:45:00,46.0,40.3,29.76,NW,315,1.1,15.7,80,0.04,,,0.04,WUHU21623XXSP,2013-02-22 05:45:00,
2013-02-21 23:50:00,46.0,40.3,29.75,ENE,67,0.0,15.7,80,0.04,,,0.04,WUHU21623XXSP,2013-02-22 05:50:00,
2013-02-21 23:55:00,46.0,40.6,29.75,SSE,157,3.8,7.8,81,0.04,,,0.04,WUHU21623XXSP,2013-02-22 05:55:00,